sensor_id;sensor_type;location;lat;lon;timestamp;pressure;altitude;pressure_sealevel;temperature;humidity
63946;BME280;50122;56.330;43.838;2023-05-23T05:35:31;101509.56;;;20.11;40.78
63946;BME280;50122;56.330;43.838;2023-05-23T05:37:58;101504.25;;;20.24;41.00
63946;BME280;50122;56.330;43.838;2023-05-23T05:40:25;101499.91;;;20.36;40.34
63946;BME280;50122;56.330;43.838;2023-05-23T05:42:52;101496.38;;;20.48;39.89
63946;BME280;50122;56.330;43.838;2023-05-23T05:45:20;101498.06;;;20.63;40.09
63946;BME280;50122;56.330;43.838;2023-05-23T05:47:46;101500.59;;;20.79;39.63
63946;BME280;50122;56.330;43.838;2023-05-23T05:50:13;101495.03;;;20.95;39.49
63946;BME280;50122;56.330;43.838;2023-05-23T05:52:43;101504.97;;;21.08;38.75
63946;BME280;50122;56.330;43.838;2023-05-23T05:55:10;101495.91;;;21.22;38.11
63946;BME280;50122;56.330;43.838;2023-05-23T05:57:38;101494.00;;;21.37;38.46
63946;BME280;50122;56.330;43.838;2023-05-23T06:00:06;101495.53;;;21.54;38.17
63946;BME280;50122;56.330;43.838;2023-05-23T06:02:38;101488.09;;;21.70;37.71
63946;BME280;50122;56.330;43.838;2023-05-23T06:05:05;101491.69;;;21.95;37.67
63946;BME280;50122;56.330;43.838;2023-05-23T06:07:34;101489.16;;;22.17;37.10
63946;BME280;50122;56.330;43.838;2023-05-23T06:10:01;101492.31;;;22.35;36.47
63946;BME280;50122;56.330;43.838;2023-05-23T06:12:29;101482.13;;;22.52;36.48
63946;BME280;50122;56.330;43.838;2023-05-23T06:14:55;101490.25;;;22.63;35.91
63946;BME280;50122;56.330;43.838;2023-05-23T06:19:49;101477.38;;;22.91;34.68
63946;BME280;50122;56.330;43.838;2023-05-23T06:22:16;101480.56;;;23.07;34.54
63946;BME280;50122;56.330;43.838;2023-05-23T06:24:43;101480.88;;;23.16;33.56
63946;BME280;50122;56.330;43.838;2023-05-23T06:27:10;101471.56;;;23.20;33.78
63946;BME280;50122;56.330;43.838;2023-05-23T06:29:37;101483.09;;;23.33;33.82
63946;BME280;50122;56.330;43.838;2023-05-23T06:32:05;101471.09;;;23.49;32.95
63946;BME280;50122;56.330;43.838;2023-05-23T06:34:31;101470.09;;;23.61;32.89
63946;BME280;50122;56.330;43.838;2023-05-23T06:37:00;101474.91;;;23.69;33.00
63946;BME280;50122;56.330;43.838;2023-05-23T06:39:27;101472.78;;;23.72;32.96
63946;BME280;50122;56.330;43.838;2023-05-23T06:41:54;101477.09;;;23.75;32.97
63946;BME280;50122;56.330;43.838;2023-05-23T06:44:21;101465.78;;;23.81;33.83
63946;BME280;50122;56.330;43.838;2023-05-23T06:46:47;101472.91;;;23.82;33.69
63946;BME280;50122;56.330;43.838;2023-05-23T06:49:14;101466.19;;;23.76;33.76
63946;BME280;50122;56.330;43.838;2023-05-23T06:51:42;101468.63;;;23.80;33.76
63946;BME280;50122;56.330;43.838;2023-05-23T06:54:09;101458.66;;;23.80;34.17
63946;BME280;50122;56.330;43.838;2023-05-23T06:56:36;101452.94;;;23.73;33.80
63946;BME280;50122;56.330;43.838;2023-05-23T06:59:04;101463.84;;;23.72;34.39
63946;BME280;50122;56.330;43.838;2023-05-23T07:01:31;101461.16;;;23.72;34.13
63946;BME280;50122;56.330;43.838;2023-05-23T07:03:58;101457.56;;;23.71;34.44
63946;BME280;50122;56.330;43.838;2023-05-23T07:06:25;101461.16;;;23.72;34.69
63946;BME280;50122;56.330;43.838;2023-05-23T07:08:53;101456.59;;;23.72;33.57
63946;BME280;50122;56.330;43.838;2023-05-23T07:11:20;101467.53;;;23.71;33.74
63946;BME280;50122;56.330;43.838;2023-05-23T07:13:47;101458.59;;;23.70;33.91
63946;BME280;50122;56.330;43.838;2023-05-23T07:16:14;101467.16;;;23.75;33.72
63946;BME280;50122;56.330;43.838;2023-05-23T07:18:41;101458.91;;;23.77;33.94
63946;BME280;50122;56.330;43.838;2023-05-23T07:21:08;101454.41;;;23.78;33.83
63946;BME280;50122;56.330;43.838;2023-05-23T07:23:34;101457.44;;;23.73;34.50
63946;BME280;50122;56.330;43.838;2023-05-23T07:26:01;101458.41;;;23.83;34.27
63946;BME280;50122;56.330;43.838;2023-05-23T07:28:29;101458.22;;;23.86;34.23
63946;BME280;50122;56.330;43.838;2023-05-23T07:30:55;101459.06;;;23.87;33.93
63946;BME280;50122;56.330;43.838;2023-05-23T07:33:23;101448.88;;;23.90;34.68
63946;BME280;50122;56.330;43.838;2023-05-23T07:35:50;101459.28;;;24.06;33.90
63946;BME280;50122;56.330;43.838;2023-05-23T07:38:19;101460.50;;;24.14;34.01
63946;BME280;50122;56.330;43.838;2023-05-23T07:40:46;101458.75;;;24.24;34.71
63946;BME280;50122;56.330;43.838;2023-05-23T07:43:32;101452.56;;;24.33;33.40
63946;BME280;50122;56.330;43.838;2023-05-23T07:45:59;101440.13;;;24.42;32.98
63946;BME280;50122;56.330;43.838;2023-05-23T07:48:26;101454.06;;;24.58;32.41
63946;BME280;50122;56.330;43.838;2023-05-23T07:50:53;101442.47;;;24.68;31.82
63946;BME280;50122;56.330;43.838;2023-05-23T07:53:20;101450.53;;;24.79;31.45
63946;BME280;50122;56.330;43.838;2023-05-23T07:55:50;101457.31;;;24.94;31.04
63946;BME280;50122;56.330;43.838;2023-05-23T07:58:17;101438.28;;;24.96;31.28
63946;BME280;50122;56.330;43.838;2023-05-23T08:00:44;101437.59;;;25.04;31.71
63946;BME280;50122;56.330;43.838;2023-05-23T08:03:11;101443.34;;;25.20;31.94
63946;BME280;50122;56.330;43.838;2023-05-23T08:05:37;101436.56;;;25.26;31.63
63946;BME280;50122;56.330;43.838;2023-05-23T08:08:04;101433.50;;;25.40;31.07
63946;BME280;50122;56.330;43.838;2023-05-23T08:10:32;101436.84;;;25.54;30.27
63946;BME280;50122;56.330;43.838;2023-05-23T08:12:58;101427.91;;;25.63;30.14
63946;BME280;50122;56.330;43.838;2023-05-23T08:15:26;101425.22;;;25.73;30.21
63946;BME280;50122;56.330;43.838;2023-05-23T08:17:54;101418.41;;;25.88;29.43
63946;BME280;50122;56.330;43.838;2023-05-23T08:20:23;101417.03;;;26.04;29.47
63946;BME280;50122;56.330;43.838;2023-05-23T08:22:58;101423.75;;;26.19;29.67
63946;BME280;50122;56.330;43.838;2023-05-23T08:25:25;101415.66;;;26.29;28.54
63946;BME280;50122;56.330;43.838;2023-05-23T08:27:56;101402.34;;;26.26;28.79
63946;BME280;50122;56.330;43.838;2023-05-23T08:30:24;101407.34;;;26.50;28.69
63946;BME280;50122;56.330;43.838;2023-05-23T08:32:52;101402.06;;;26.58;28.02
63946;BME280;50122;56.330;43.838;2023-05-23T08:35:18;101406.91;;;26.84;28.74
63946;BME280;50122;56.330;43.838;2023-05-23T08:37:45;101402.00;;;26.97;28.52
63946;BME280;50122;56.330;43.838;2023-05-23T08:40:14;101401.53;;;27.12;28.43
63946;BME280;50122;56.330;43.838;2023-05-23T08:42:43;101409.31;;;27.25;26.74
63946;BME280;50122;56.330;43.838;2023-05-23T08:45:10;101395.88;;;27.33;26.76
63946;BME280;50122;56.330;43.838;2023-05-23T08:47:40;101403.16;;;27.60;27.67
63946;BME280;50122;56.330;43.838;2023-05-23T08:50:11;101393.50;;;27.76;26.40
63946;BME280;50122;56.330;43.838;2023-05-23T08:52:43;101397.56;;;27.89;26.16
63946;BME280;50122;56.330;43.838;2023-05-23T08:55:11;101388.63;;;27.97;23.52
63946;BME280;50122;56.330;43.838;2023-05-23T08:57:38;101385.16;;;28.05;23.15
63946;BME280;50122;56.330;43.838;2023-05-23T09:00:29;101393.72;;;28.10;23.62
63946;BME280;50122;56.330;43.838;2023-05-23T09:02:56;101390.84;;;28.12;22.61
63946;BME280;50122;56.330;43.838;2023-05-23T09:05:25;101382.69;;;28.12;21.91
63946;BME280;50122;56.330;43.838;2023-05-23T09:07:52;101378.63;;;28.34;22.48
63946;BME280;50122;56.330;43.838;2023-05-23T09:10:20;101385.03;;;28.95;22.22
63946;BME280;50122;56.330;43.838;2023-05-23T09:12:48;101372.16;;;30.16;19.18
63946;BME280;50122;56.330;43.838;2023-05-23T09:15:15;101372.00;;;31.31;18.47
63946;BME280;50122;56.330;43.838;2023-05-23T09:17:43;101361.19;;;32.00;17.25
63946;BME280;50122;56.330;43.838;2023-05-23T09:20:13;101370.34;;;31.53;17.86
63946;BME280;50122;56.330;43.838;2023-05-23T09:22:45;101378.00;;;30.54;18.38
63946;BME280;50122;56.330;43.838;2023-05-23T09:25:14;101379.34;;;30.25;18.32
63946;BME280;50122;56.330;43.838;2023-05-23T09:27:41;101367.94;;;31.90;17.03
63946;BME280;50122;56.330;43.838;2023-05-23T09:30:13;101361.81;;;33.53;15.55
63946;BME280;50122;56.330;43.838;2023-05-23T09:32:56;101354.47;;;34.69;15.10
63946;BME280;50122;56.330;43.838;2023-05-23T09:35:30;101355.06;;;35.34;14.64
63946;BME280;50122;56.330;43.838;2023-05-23T09:38:02;101353.94;;;35.84;14.72
63946;BME280;50122;56.330;43.838;2023-05-23T09:40:30;101348.50;;;36.44;14.69
63946;BME280;50122;56.330;43.838;2023-05-23T09:43:02;101363.00;;;37.57;14.12
63946;BME280;50122;56.330;43.838;2023-05-23T09:45:30;101362.84;;;38.15;13.16
63946;BME280;50122;56.330;43.838;2023-05-23T09:48:02;101348.84;;;38.61;12.30
63946;BME280;50122;56.330;43.838;2023-05-23T09:50:31;101353.34;;;38.55;13.13
63946;BME280;50122;56.330;43.838;2023-05-23T09:53:02;101350.97;;;39.21;12.18
63946;BME280;50122;56.330;43.838;2023-05-23T09:55:29;101343.88;;;39.86;11.81
63946;BME280;50122;56.330;43.838;2023-05-23T09:57:58;101343.28;;;39.23;11.91
63946;BME280;50122;56.330;43.838;2023-05-23T10:00:25;101351.53;;;38.23;12.34
63946;BME280;50122;56.330;43.838;2023-05-23T10:03:12;101362.25;;;37.43;12.33
63946;BME280;50122;56.330;43.838;2023-05-23T10:05:49;101356.03;;;37.86;12.50
63946;BME280;50122;56.330;43.838;2023-05-23T10:08:27;101351.19;;;39.01;11.72
63946;BME280;50122;56.330;43.838;2023-05-23T10:13:42;101359.88;;;39.53;11.88
63946;BME280;50122;56.330;43.838;2023-05-23T10:16:39;101364.44;;;40.44;11.43
63946;BME280;50122;56.330;43.838;2023-05-23T10:19:35;101352.03;;;40.94;10.71
63946;BME280;50122;56.330;43.838;2023-05-23T10:22:07;101350.00;;;40.66;11.08
63946;BME280;50122;56.330;43.838;2023-05-23T10:24:35;101354.59;;;39.94;11.40
63946;BME280;50122;56.330;43.838;2023-05-23T10:27:03;101353.13;;;40.22;11.63
63946;BME280;50122;56.330;43.838;2023-05-23T10:29:30;101344.19;;;39.66;13.04
63946;BME280;50122;56.330;43.838;2023-05-23T10:31:59;101344.59;;;40.47;12.45
63946;BME280;50122;56.330;43.838;2023-05-23T10:40:23;101359.41;;;36.97;14.30
63946;BME280;50122;56.330;43.838;2023-05-23T10:42:59;101354.50;;;35.59;15.39
63946;BME280;50122;56.330;43.838;2023-05-23T10:45:28;101351.59;;;35.19;16.10
63946;BME280;50122;56.330;43.838;2023-05-23T10:47:58;101345.84;;;35.62;15.29
63946;BME280;50122;56.330;43.838;2023-05-23T10:50:33;101347.66;;;36.37;15.28
63946;BME280;50122;56.330;43.838;2023-05-23T10:53:08;101333.75;;;38.38;14.24
63946;BME280;50122;56.330;43.838;2023-05-23T10:55:36;101326.25;;;38.70;13.53
63946;BME280;50122;56.330;43.838;2023-05-23T11:00:37;101327.91;;;38.53;14.00
63946;BME280;50122;56.330;43.838;2023-05-23T11:03:05;101313.38;;;39.32;12.05
63946;BME280;50122;56.330;43.838;2023-05-23T11:05:34;101322.94;;;40.96;11.24
63946;BME280;50122;56.330;43.838;2023-05-23T11:08:11;101329.25;;;40.92;10.71
63946;BME280;50122;56.330;43.838;2023-05-23T11:11:00;101321.06;;;39.30;10.52
63946;BME280;50122;56.330;43.838;2023-05-23T11:16:39;101308.56;;;39.08;12.25
63946;BME280;50122;56.330;43.838;2023-05-23T11:19:20;101310.00;;;41.43;10.93
63946;BME280;50122;56.330;43.838;2023-05-23T11:24:46;101312.34;;;43.42;8.59
63946;BME280;50122;56.330;43.838;2023-05-23T11:27:11;101314.22;;;42.08;9.73
63946;BME280;50122;56.330;43.838;2023-05-23T11:29:38;101299.50;;;42.47;9.29
63946;BME280;50122;56.330;43.838;2023-05-23T11:32:11;101304.03;;;42.70;9.87
63946;BME280;50122;56.330;43.838;2023-05-23T11:34:43;101302.47;;;41.55;9.90
63946;BME280;50122;56.330;43.838;2023-05-23T11:37:12;101310.84;;;39.12;11.37
63946;BME280;50122;56.330;43.838;2023-05-23T11:39:43;101314.88;;;37.14;12.39
63946;BME280;50122;56.330;43.838;2023-05-23T11:42:10;101312.94;;;35.95;13.03
63946;BME280;50122;56.330;43.838;2023-05-23T11:44:36;101303.34;;;35.64;13.46
63946;BME280;50122;56.330;43.838;2023-05-23T11:47:06;101318.22;;;35.90;13.82
63946;BME280;50122;56.330;43.838;2023-05-23T11:49:37;101307.22;;;35.90;13.28
63946;BME280;50122;56.330;43.838;2023-05-23T11:52:06;101302.19;;;38.34;11.59
63946;BME280;50122;56.330;43.838;2023-05-23T11:54:34;101294.44;;;39.89;10.96
63946;BME280;50122;56.330;43.838;2023-05-23T11:57:01;101300.97;;;40.54;10.26
63946;BME280;50122;56.330;43.838;2023-05-23T11:59:29;101289.69;;;41.25;10.61
63946;BME280;50122;56.330;43.838;2023-05-23T12:02:01;101290.97;;;42.14;10.15
63946;BME280;50122;56.330;43.838;2023-05-23T12:04:39;101277.91;;;42.93;9.31
63946;BME280;50122;56.330;43.838;2023-05-23T12:07:06;101284.44;;;43.31;10.25
63946;BME280;50122;56.330;43.838;2023-05-23T12:09:45;101270.28;;;43.65;8.95
63946;BME280;50122;56.330;43.838;2023-05-23T12:12:14;101274.50;;;40.47;9.96
63946;BME280;50122;56.330;43.838;2023-05-23T12:14:42;101280.41;;;39.00;11.80
63946;BME280;50122;56.330;43.838;2023-05-23T12:17:11;101269.56;;;38.98;11.75
63946;BME280;50122;56.330;43.838;2023-05-23T12:19:39;101276.50;;;41.61;10.58
63946;BME280;50122;56.330;43.838;2023-05-23T12:22:06;101268.91;;;43.08;9.16
63946;BME280;50122;56.330;43.838;2023-05-23T12:24:33;101270.00;;;42.24;9.70
63946;BME280;50122;56.330;43.838;2023-05-23T12:27:01;101273.03;;;41.25;10.88
63946;BME280;50122;56.330;43.838;2023-05-23T12:29:33;101264.03;;;42.54;9.69
63946;BME280;50122;56.330;43.838;2023-05-23T12:32:02;101264.13;;;41.52;10.39
63946;BME280;50122;56.330;43.838;2023-05-23T12:34:33;101276.09;;;39.22;11.51
63946;BME280;50122;56.330;43.838;2023-05-23T12:37:00;101255.78;;;37.42;13.04
63946;BME280;50122;56.330;43.838;2023-05-23T12:39:33;101250.78;;;37.89;12.65
63946;BME280;50122;56.330;43.838;2023-05-23T12:42:07;101248.38;;;40.19;11.27
63946;BME280;50122;56.330;43.838;2023-05-23T12:44:35;101238.91;;;42.05;10.49
63946;BME280;50122;56.330;43.838;2023-05-23T12:47:02;101247.94;;;43.55;10.50
63946;BME280;50122;56.330;43.838;2023-05-23T12:49:29;101244.09;;;42.79;9.61
63946;BME280;50122;56.330;43.838;2023-05-23T12:51:56;101243.69;;;41.58;10.30
63946;BME280;50122;56.330;43.838;2023-05-23T12:54:23;101234.16;;;42.89;9.99
63946;BME280;50122;56.330;43.838;2023-05-23T12:56:50;101246.66;;;42.20;10.21
63946;BME280;50122;56.330;43.838;2023-05-23T12:59:16;101249.47;;;41.40;10.29
63946;BME280;50122;56.330;43.838;2023-05-23T13:01:43;101238.16;;;41.75;9.95
63946;BME280;50122;56.330;43.838;2023-05-23T13:04:11;101246.16;;;42.89;9.38
63946;BME280;50122;56.330;43.838;2023-05-23T13:06:38;101240.66;;;44.24;8.96
63946;BME280;50122;56.330;43.838;2023-05-23T13:09:05;101237.31;;;44.90;8.51
63946;BME280;50122;56.330;43.838;2023-05-23T13:11:32;101225.31;;;44.95;8.76
63946;BME280;50122;56.330;43.838;2023-05-23T13:13:59;101228.19;;;45.26;8.30
63946;BME280;50122;56.330;43.838;2023-05-23T13:16:26;101228.75;;;45.23;8.32
63946;BME280;50122;56.330;43.838;2023-05-23T13:18:52;101227.66;;;45.50;8.06
63946;BME280;50122;56.330;43.838;2023-05-23T13:21:19;101232.00;;;44.89;8.71
63946;BME280;50122;56.330;43.838;2023-05-23T13:23:46;101228.66;;;44.92;8.59
63946;BME280;50122;56.330;43.838;2023-05-23T13:26:13;101228.19;;;44.37;8.30
63946;BME280;50122;56.330;43.838;2023-05-23T13:28:40;101222.34;;;44.38;8.89
63946;BME280;50122;56.330;43.838;2023-05-23T13:31:07;101213.13;;;45.22;8.95
63946;BME280;50122;56.330;43.838;2023-05-23T13:33:34;101209.78;;;45.51;8.50
63946;BME280;50122;56.330;43.838;2023-05-23T13:36:02;101222.59;;;45.77;8.35
63946;BME280;50122;56.330;43.838;2023-05-23T13:38:28;101226.78;;;45.80;7.80
63946;BME280;50122;56.330;43.838;2023-05-23T13:40:58;101219.25;;;45.29;8.29
63946;BME280;50122;56.330;43.838;2023-05-23T13:43:24;101215.13;;;44.48;8.42
63946;BME280;50122;56.330;43.838;2023-05-23T13:45:51;101215.50;;;44.14;9.11
63946;BME280;50122;56.330;43.838;2023-05-23T13:48:18;101220.19;;;43.33;9.56
63946;BME280;50122;56.330;43.838;2023-05-23T13:50:45;101209.63;;;42.58;9.42
63946;BME280;50122;56.330;43.838;2023-05-23T13:53:12;101212.19;;;42.87;10.45
63946;BME280;50122;56.330;43.838;2023-05-23T13:55:43;101209.53;;;43.25;9.66
63946;BME280;50122;56.330;43.838;2023-05-23T13:58:12;101205.19;;;42.35;10.01
63946;BME280;50122;56.330;43.838;2023-05-23T14:00:39;101205.91;;;42.47;10.65
63946;BME280;50122;56.330;43.838;2023-05-23T14:03:07;101215.31;;;42.68;9.52
63946;BME280;50122;56.330;43.838;2023-05-23T14:05:34;101205.91;;;42.47;10.57
63946;BME280;50122;56.330;43.838;2023-05-23T14:08:02;101209.13;;;41.32;10.18
63946;BME280;50122;56.330;43.838;2023-05-23T14:10:32;101222.13;;;40.33;11.23
63946;BME280;50122;56.330;43.838;2023-05-23T14:12:59;101210.91;;;39.69;11.42
63946;BME280;50122;56.330;43.838;2023-05-23T14:15:26;101212.03;;;39.25;11.38
63946;BME280;50122;56.330;43.838;2023-05-23T14:17:53;101202.69;;;38.59;12.33
63946;BME280;50122;56.330;43.838;2023-05-23T14:20:21;101197.06;;;38.10;12.51
63946;BME280;50122;56.330;43.838;2023-05-23T14:22:49;101197.44;;;37.45;13.00
63946;BME280;50122;56.330;43.838;2023-05-23T14:25:17;101196.53;;;36.80;13.50
63946;BME280;50122;56.330;43.838;2023-05-23T14:27:44;101200.38;;;35.80;14.59
63946;BME280;50122;56.330;43.838;2023-05-23T14:30:11;101198.16;;;35.16;15.48
63946;BME280;50122;56.330;43.838;2023-05-23T14:32:37;101197.78;;;34.70;15.49
63946;BME280;50122;56.330;43.838;2023-05-23T14:35:08;101201.13;;;34.24;16.32
63946;BME280;50122;56.330;43.838;2023-05-23T14:37:35;101198.16;;;33.90;15.99
63946;BME280;50122;56.330;43.838;2023-05-23T14:40:06;101188.34;;;33.53;16.51
63946;BME280;50122;56.330;43.838;2023-05-23T14:42:32;101191.22;;;33.45;16.14
63946;BME280;50122;56.330;43.838;2023-05-23T14:44:59;101195.06;;;33.29;16.46
